sensor_id;sensor_type;location;lat;lon;timestamp;P1;durP1;ratioP1;P2;durP2;ratioP2
3841;SDS011;1936;47.074;15.336;2023-11-19T00:01:22;6.13;;;5.20;;
3841;SDS011;1936;47.074;15.336;2023-11-19T00:03:25;5.38;;;4.65;;
3841;SDS011;1936;47.074;15.336;2023-11-19T00:05:29;6.90;;;5.93;;
3841;SDS011;1936;47.074;15.336;2023-11-19T00:07:33;6.05;;;4.53;;
3841;SDS011;1936;47.074;15.336;2023-11-19T00:09:36;8.32;;;4.82;;
3841;SDS011;1936;47.074;15.336;2023-11-19T00:11:42;5.85;;;4.20;;
3841;SDS011;1936;47.074;15.336;2023-11-19T00:13:55;5.75;;;4.28;;
3841;SDS011;1936;47.074;15.336;2023-11-19T00:15:58;9.63;;;5.35;;
3841;SDS011;1936;47.074;15.336;2023-11-19T00:18:02;6.53;;;4.70;;
3841;SDS011;1936;47.074;15.336;2023-11-19T00:20:06;6.85;;;4.95;;
3841;SDS011;1936;47.074;15.336;2023-11-19T00:22:09;5.15;;;4.65;;
3841;SDS011;1936;47.074;15.336;2023-11-19T00:24:13;5.57;;;4.45;;
3841;SDS011;1936;47.074;15.336;2023-11-19T00:26:17;6.57;;;5.35;;
3841;SDS011;1936;47.074;15.336;2023-11-19T00:28:22;7.40;;;5.22;;
3841;SDS011;1936;47.074;15.336;2023-11-19T00:30:26;6.28;;;5.13;;
3841;SDS011;1936;47.074;15.336;2023-11-19T00:32:29;6.40;;;5.30;;
3841;SDS011;1936;47.074;15.336;2023-11-19T00:34:31;6.07;;;5.30;;
3841;SDS011;1936;47.074;15.336;2023-11-19T00:36:35;5.95;;;4.60;;
3841;SDS011;1936;47.074;15.336;2023-11-19T00:38:38;5.75;;;4.50;;
3841;SDS011;1936;47.074;15.336;2023-11-19T00:40:42;5.25;;;4.43;;
3841;SDS011;1936;47.074;15.336;2023-11-19T00:42:45;6.80;;;4.57;;
3841;SDS011;1936;47.074;15.336;2023-11-19T00:44:50;4.38;;;3.95;;
3841;SDS011;1936;47.074;15.336;2023-11-19T00:46:53;5.25;;;4.03;;
3841;SDS011;1936;47.074;15.336;2023-11-19T00:48:57;3.90;;;3.60;;
3841;SDS011;1936;47.074;15.336;2023-11-19T00:51:01;8.00;;;5.18;;
3841;SDS011;1936;47.074;15.336;2023-11-19T00:53:05;5.88;;;5.28;;
3841;SDS011;1936;47.074;15.336;2023-11-19T00:55:08;5.05;;;4.47;;
3841;SDS011;1936;47.074;15.336;2023-11-19T00:57:13;4.55;;;4.15;;
3841;SDS011;1936;47.074;15.336;2023-11-19T00:59:15;6.32;;;4.63;;
3841;SDS011;1936;47.074;15.336;2023-11-19T01:01:20;5.38;;;4.38;;
3841;SDS011;1936;47.074;15.336;2023-11-19T01:03:24;4.32;;;3.92;;
3841;SDS011;1936;47.074;15.336;2023-11-19T01:05:27;5.43;;;4.43;;
3841;SDS011;1936;47.074;15.336;2023-11-19T01:07:30;7.40;;;4.63;;
3841;SDS011;1936;47.074;15.336;2023-11-19T01:09:35;8.93;;;4.75;;
3841;SDS011;1936;47.074;15.336;2023-11-19T01:11:38;5.10;;;4.47;;
3841;SDS011;1936;47.074;15.336;2023-11-19T01:13:41;4.70;;;4.30;;
3841;SDS011;1936;47.074;15.336;2023-11-19T01:15:45;5.07;;;4.50;;
3841;SDS011;1936;47.074;15.336;2023-11-19T01:17:50;5.20;;;3.95;;
3841;SDS011;1936;47.074;15.336;2023-11-19T01:19:54;5.53;;;5.03;;
3841;SDS011;1936;47.074;15.336;2023-11-19T01:21:57;5.15;;;4.22;;
3841;SDS011;1936;47.074;15.336;2023-11-19T01:24:00;9.50;;;5.57;;
3841;SDS011;1936;47.074;15.336;2023-11-19T01:26:05;5.40;;;4.75;;
3841;SDS011;1936;47.074;15.336;2023-11-19T01:28:11;9.80;;;5.15;;
3841;SDS011;1936;47.074;15.336;2023-11-19T01:30:14;5.85;;;5.25;;
3841;SDS011;1936;47.074;15.336;2023-11-19T01:32:18;7.32;;;5.60;;
3841;SDS011;1936;47.074;15.336;2023-11-19T01:34:22;7.97;;;6.00;;
3841;SDS011;1936;47.074;15.336;2023-11-19T01:36:25;5.65;;;4.28;;
3841;SDS011;1936;47.074;15.336;2023-11-19T01:38:27;8.13;;;5.18;;
3841;SDS011;1936;47.074;15.336;2023-11-19T01:40:32;7.53;;;6.28;;
3841;SDS011;1936;47.074;15.336;2023-11-19T01:42:36;6.80;;;5.40;;
3841;SDS011;1936;47.074;15.336;2023-11-19T01:44:40;6.00;;;4.90;;
3841;SDS011;1936;47.074;15.336;2023-11-19T01:46:44;8.23;;;5.68;;
3841;SDS011;1936;47.074;15.336;2023-11-19T01:48:49;5.63;;;5.03;;
3841;SDS011;1936;47.074;15.336;2023-11-19T01:50:55;6.40;;;5.75;;
3841;SDS011;1936;47.074;15.336;2023-11-19T01:53:02;6.50;;;5.05;;
3841;SDS011;1936;47.074;15.336;2023-11-19T01:55:06;7.00;;;6.13;;
3841;SDS011;1936;47.074;15.336;2023-11-19T01:57:10;6.15;;;5.03;;
3841;SDS011;1936;47.074;15.336;2023-11-19T01:59:14;6.30;;;5.18;;
3841;SDS011;1936;47.074;15.336;2023-11-19T02:01:17;7.20;;;5.18;;
3841;SDS011;1936;47.074;15.336;2023-11-19T02:03:21;6.32;;;4.78;;
3841;SDS011;1936;47.074;15.336;2023-11-19T02:05:27;6.25;;;5.00;;
3841;SDS011;1936;47.074;15.336;2023-11-19T02:07:35;6.57;;;5.30;;
3841;SDS011;1936;47.074;15.336;2023-11-19T02:09:38;6.80;;;6.10;;
3841;SDS011;1936;47.074;15.336;2023-11-19T02:11:43;5.60;;;5.10;;
3841;SDS011;1936;47.074;15.336;2023-11-19T02:13:50;6.75;;;5.22;;
3841;SDS011;1936;47.074;15.336;2023-11-19T02:15:53;7.55;;;5.30;;
3841;SDS011;1936;47.074;15.336;2023-11-19T02:17:57;5.22;;;4.72;;
3841;SDS011;1936;47.074;15.336;2023-11-19T02:20:19;7.28;;;5.43;;
3841;SDS011;1936;47.074;15.336;2023-11-19T02:22:23;7.80;;;6.25;;
3841;SDS011;1936;47.074;15.336;2023-11-19T02:24:28;4.90;;;4.40;;
3841;SDS011;1936;47.074;15.336;2023-11-19T02:26:37;5.18;;;4.60;;
3841;SDS011;1936;47.074;15.336;2023-11-19T02:28:47;5.30;;;4.80;;
3841;SDS011;1936;47.074;15.336;2023-11-19T02:30:50;7.88;;;5.40;;
3841;SDS011;1936;47.074;15.336;2023-11-19T02:32:54;6.13;;;5.32;;
3841;SDS011;1936;47.074;15.336;2023-11-19T02:34:59;5.82;;;5.15;;
3841;SDS011;1936;47.074;15.336;2023-11-19T02:37:05;5.78;;;5.15;;
3841;SDS011;1936;47.074;15.336;2023-11-19T02:39:10;5.70;;;5.10;;
3841;SDS011;1936;47.074;15.336;2023-11-19T02:41:14;5.82;;;5.03;;
3841;SDS011;1936;47.074;15.336;2023-11-19T02:43:17;5.82;;;4.65;;
3841;SDS011;1936;47.074;15.336;2023-11-19T02:45:23;6.07;;;4.97;;
3841;SDS011;1936;47.074;15.336;2023-11-19T02:47:27;5.78;;;5.07;;
3841;SDS011;1936;47.074;15.336;2023-11-19T02:49:32;6.65;;;5.28;;
3841;SDS011;1936;47.074;15.336;2023-11-19T02:51:35;5.55;;;4.95;;
3841;SDS011;1936;47.074;15.336;2023-11-19T02:53:39;5.65;;;5.15;;
3841;SDS011;1936;47.074;15.336;2023-11-19T02:55:42;6.15;;;4.95;;
3841;SDS011;1936;47.074;15.336;2023-11-19T02:57:50;7.60;;;5.07;;
3841;SDS011;1936;47.074;15.336;2023-11-19T02:59:55;10.00;;;5.60;;
3841;SDS011;1936;47.074;15.336;2023-11-19T03:01:59;6.60;;;5.05;;
3841;SDS011;1936;47.074;15.336;2023-11-19T03:04:03;6.05;;;4.55;;
3841;SDS011;1936;47.074;15.336;2023-11-19T03:06:06;5.53;;;5.03;;
3841;SDS011;1936;47.074;15.336;2023-11-19T03:08:10;5.78;;;5.18;;
3841;SDS011;1936;47.074;15.336;2023-11-19T03:10:23;7.05;;;5.45;;
3841;SDS011;1936;47.074;15.336;2023-11-19T03:12:27;5.35;;;4.65;;
3841;SDS011;1936;47.074;15.336;2023-11-19T03:14:30;6.15;;;4.32;;
3841;SDS011;1936;47.074;15.336;2023-11-19T03:16:36;5.55;;;4.93;;
3841;SDS011;1936;47.074;15.336;2023-11-19T03:18:41;4.60;;;4.20;;
3841;SDS011;1936;47.074;15.336;2023-11-19T03:20:44;6.35;;;5.38;;
3841;SDS011;1936;47.074;15.336;2023-11-19T03:22:49;6.90;;;5.63;;
3841;SDS011;1936;47.074;15.336;2023-11-19T03:24:54;5.78;;;5.18;;
3841;SDS011;1936;47.074;15.336;2023-11-19T03:26:57;6.43;;;5.10;;
3841;SDS011;1936;47.074;15.336;2023-11-19T03:29:01;11.43;;;5.68;;
3841;SDS011;1936;47.074;15.336;2023-11-19T03:31:04;5.70;;;4.85;;
3841;SDS011;1936;47.074;15.336;2023-11-19T03:33:10;6.05;;;4.75;;
3841;SDS011;1936;47.074;15.336;2023-11-19T03:35:15;4.53;;;4.13;;
3841;SDS011;1936;47.074;15.336;2023-11-19T03:37:17;7.47;;;5.72;;
3841;SDS011;1936;47.074;15.336;2023-11-19T03:39:21;6.57;;;5.53;;
3841;SDS011;1936;47.074;15.336;2023-11-19T03:41:26;8.77;;;4.65;;
3841;SDS011;1936;47.074;15.336;2023-11-19T03:43:29;10.52;;;5.65;;
3841;SDS011;1936;47.074;15.336;2023-11-19T03:45:34;10.25;;;6.35;;
3841;SDS011;1936;47.074;15.336;2023-11-19T03:47:38;7.40;;;6.43;;
3841;SDS011;1936;47.074;15.336;2023-11-19T03:49:42;6.55;;;5.15;;
3841;SDS011;1936;47.074;15.336;2023-11-19T03:51:51;9.77;;;6.05;;
3841;SDS011;1936;47.074;15.336;2023-11-19T03:53:54;6.78;;;5.35;;
3841;SDS011;1936;47.074;15.336;2023-11-19T03:55:58;6.20;;;5.60;;
3841;SDS011;1936;47.074;15.336;2023-11-19T03:58:01;7.25;;;5.80;;
3841;SDS011;1936;47.074;15.336;2023-11-19T04:00:05;6.70;;;5.85;;
3841;SDS011;1936;47.074;15.336;2023-11-19T04:02:11;5.43;;;4.75;;
3841;SDS011;1936;47.074;15.336;2023-11-19T04:04:15;6.50;;;4.88;;
3841;SDS011;1936;47.074;15.336;2023-11-19T04:06:18;6.43;;;5.07;;
3841;SDS011;1936;47.074;15.336;2023-11-19T04:08:24;6.35;;;5.18;;
3841;SDS011;1936;47.074;15.336;2023-11-19T04:10:27;6.07;;;4.85;;
3841;SDS011;1936;47.074;15.336;2023-11-19T04:12:29;6.13;;;5.20;;
3841;SDS011;1936;47.074;15.336;2023-11-19T04:14:33;5.85;;;5.25;;
3841;SDS011;1936;47.074;15.336;2023-11-19T04:16:36;5.78;;;4.97;;
3841;SDS011;1936;47.074;15.336;2023-11-19T04:18:40;6.13;;;5.53;;
3841;SDS011;1936;47.074;15.336;2023-11-19T04:20:43;7.07;;;5.10;;
3841;SDS011;1936;47.074;15.336;2023-11-19T04:22:47;5.05;;;4.55;;
3841;SDS011;1936;47.074;15.336;2023-11-19T04:24:54;5.40;;;4.80;;
3841;SDS011;1936;47.074;15.336;2023-11-19T04:26:58;5.68;;;5.07;;
3841;SDS011;1936;47.074;15.336;2023-11-19T04:29:01;7.32;;;5.70;;
3841;SDS011;1936;47.074;15.336;2023-11-19T04:31:05;5.93;;;5.00;;
3841;SDS011;1936;47.074;15.336;2023-11-19T04:33:08;6.43;;;5.53;;
3841;SDS011;1936;47.074;15.336;2023-11-19T04:35:12;6.68;;;5.80;;
3841;SDS011;1936;47.074;15.336;2023-11-19T04:37:15;6.35;;;5.75;;
3841;SDS011;1936;47.074;15.336;2023-11-19T04:39:18;5.80;;;5.22;;
3841;SDS011;1936;47.074;15.336;2023-11-19T04:41:23;5.72;;;5.03;;
3841;SDS011;1936;47.074;15.336;2023-11-19T04:43:26;7.80;;;5.53;;
3841;SDS011;1936;47.074;15.336;2023-11-19T04:45:29;8.98;;;5.22;;
3841;SDS011;1936;47.074;15.336;2023-11-19T04:47:33;6.45;;;4.90;;
3841;SDS011;1936;47.074;15.336;2023-11-19T04:49:39;6.20;;;5.60;;
3841;SDS011;1936;47.074;15.336;2023-11-19T04:51:44;5.18;;;4.60;;
3841;SDS011;1936;47.074;15.336;2023-11-19T04:53:49;6.32;;;5.47;;
3841;SDS011;1936;47.074;15.336;2023-11-19T04:55:53;5.82;;;4.43;;
3841;SDS011;1936;47.074;15.336;2023-11-19T04:57:56;7.35;;;5.03;;
3841;SDS011;1936;47.074;15.336;2023-11-19T04:59:59;5.40;;;4.88;;
3841;SDS011;1936;47.074;15.336;2023-11-19T05:02:17;6.90;;;5.38;;
3841;SDS011;1936;47.074;15.336;2023-11-19T05:04:21;8.95;;;6.10;;
3841;SDS011;1936;47.074;15.336;2023-11-19T05:06:25;5.30;;;4.70;;
3841;SDS011;1936;47.074;15.336;2023-11-19T05:08:30;6.72;;;5.07;;
3841;SDS011;1936;47.074;15.336;2023-11-19T05:10:34;5.78;;;5.18;;
3841;SDS011;1936;47.074;15.336;2023-11-19T05:12:38;10.90;;;5.63;;
3841;SDS011;1936;47.074;15.336;2023-11-19T05:14:44;7.50;;;5.47;;
3841;SDS011;1936;47.074;15.336;2023-11-19T05:16:52;8.02;;;5.75;;
3841;SDS011;1936;47.074;15.336;2023-11-19T05:18:55;6.03;;;4.80;;
3841;SDS011;1936;47.074;15.336;2023-11-19T05:20:58;5.68;;;4.97;;
3841;SDS011;1936;47.074;15.336;2023-11-19T05:23:02;6.28;;;5.53;;
3841;SDS011;1936;47.074;15.336;2023-11-19T05:25:05;5.82;;;5.20;;
3841;SDS011;1936;47.074;15.336;2023-11-19T05:27:10;5.72;;;5.10;;
3841;SDS011;1936;47.074;15.336;2023-11-19T05:29:15;6.20;;;5.50;;
3841;SDS011;1936;47.074;15.336;2023-11-19T05:31:19;7.57;;;5.70;;
3841;SDS011;1936;47.074;15.336;2023-11-19T05:33:23;8.10;;;6.72;;
3841;SDS011;1936;47.074;15.336;2023-11-19T05:35:26;9.77;;;6.00;;
3841;SDS011;1936;47.074;15.336;2023-11-19T05:37:29;7.30;;;5.97;;
3841;SDS011;1936;47.074;15.336;2023-11-19T05:39:33;5.95;;;5.35;;
3841;SDS011;1936;47.074;15.336;2023-11-19T05:41:36;5.82;;;5.22;;
3841;SDS011;1936;47.074;15.336;2023-11-19T05:43:40;7.53;;;6.57;;
3841;SDS011;1936;47.074;15.336;2023-11-19T05:45:43;5.78;;;4.72;;
3841;SDS011;1936;47.074;15.336;2023-11-19T05:47:48;6.45;;;5.68;;
3841;SDS011;1936;47.074;15.336;2023-11-19T05:49:53;6.50;;;5.75;;
3841;SDS011;1936;47.074;15.336;2023-11-19T05:51:56;6.10;;;5.50;;
3841;SDS011;1936;47.074;15.336;2023-11-19T05:53:59;7.55;;;5.90;;
3841;SDS011;1936;47.074;15.336;2023-11-19T05:56:02;7.90;;;6.03;;
3841;SDS011;1936;47.074;15.336;2023-11-19T05:58:06;8.18;;;5.82;;
3841;SDS011;1936;47.074;15.336;2023-11-19T06:00:13;7.88;;;5.78;;
3841;SDS011;1936;47.074;15.336;2023-11-19T06:02:17;7.68;;;5.68;;
3841;SDS011;1936;47.074;15.336;2023-11-19T06:04:22;7.72;;;5.93;;
3841;SDS011;1936;47.074;15.336;2023-11-19T06:06:25;7.85;;;5.90;;
3841;SDS011;1936;47.074;15.336;2023-11-19T06:08:28;7.97;;;5.07;;
3841;SDS011;1936;47.074;15.336;2023-11-19T06:10:33;6.65;;;5.90;;
3841;SDS011;1936;47.074;15.336;2023-11-19T06:12:36;6.78;;;5.35;;
3841;SDS011;1936;47.074;15.336;2023-11-19T06:14:42;6.57;;;5.43;;
3841;SDS011;1936;47.074;15.336;2023-11-19T06:16:45;6.47;;;5.88;;
3841;SDS011;1936;47.074;15.336;2023-11-19T06:18:49;5.35;;;4.85;;
3841;SDS011;1936;47.074;15.336;2023-11-19T06:20:54;6.25;;;5.65;;
3841;SDS011;1936;47.074;15.336;2023-11-19T06:22:58;6.72;;;5.60;;
3841;SDS011;1936;47.074;15.336;2023-11-19T06:25:02;5.22;;;4.70;;
3841;SDS011;1936;47.074;15.336;2023-11-19T06:27:09;5.85;;;5.07;;
3841;SDS011;1936;47.074;15.336;2023-11-19T06:29:11;5.22;;;4.70;;
3841;SDS011;1936;47.074;15.336;2023-11-19T06:31:20;7.28;;;5.47;;
3841;SDS011;1936;47.074;15.336;2023-11-19T06:33:23;6.18;;;5.07;;
3841;SDS011;1936;47.074;15.336;2023-11-19T06:35:28;6.07;;;5.40;;
3841;SDS011;1936;47.074;15.336;2023-11-19T06:37:39;5.43;;;4.78;;
3841;SDS011;1936;47.074;15.336;2023-11-19T06:39:43;7.68;;;5.97;;
3841;SDS011;1936;47.074;15.336;2023-11-19T06:41:47;5.45;;;4.95;;
3841;SDS011;1936;47.074;15.336;2023-11-19T06:43:49;5.88;;;5.28;;
3841;SDS011;1936;47.074;15.336;2023-11-19T06:45:53;12.25;;;5.68;;
3841;SDS011;1936;47.074;15.336;2023-11-19T06:47:58;5.75;;;5.20;;
3841;SDS011;1936;47.074;15.336;2023-11-19T06:50:05;9.00;;;5.95;;
3841;SDS011;1936;47.074;15.336;2023-11-19T06:52:08;5.47;;;4.40;;
3841;SDS011;1936;47.074;15.336;2023-11-19T06:54:13;6.38;;;5.57;;
3841;SDS011;1936;47.074;15.336;2023-11-19T06:56:18;6.40;;;5.68;;
3841;SDS011;1936;47.074;15.336;2023-11-19T06:58:22;6.80;;;4.75;;
3841;SDS011;1936;47.074;15.336;2023-11-19T07:00:26;5.80;;;5.30;;
3841;SDS011;1936;47.074;15.336;2023-11-19T07:02:29;7.40;;;5.22;;
3841;SDS011;1936;47.074;15.336;2023-11-19T07:04:32;5.47;;;4.50;;
3841;SDS011;1936;47.074;15.336;2023-11-19T07:06:35;6.35;;;5.25;;
3841;SDS011;1936;47.074;15.336;2023-11-19T07:08:39;5.07;;;4.50;;
3841;SDS011;1936;47.074;15.336;2023-11-19T07:10:45;5.45;;;4.10;;
3841;SDS011;1936;47.074;15.336;2023-11-19T07:12:48;4.25;;;3.65;;
3841;SDS011;1936;47.074;15.336;2023-11-19T07:14:52;4.95;;;4.38;;
3841;SDS011;1936;47.074;15.336;2023-11-19T07:16:56;5.53;;;5.00;;
3841;SDS011;1936;47.074;15.336;2023-11-19T07:19:00;5.97;;;5.15;;
3841;SDS011;1936;47.074;15.336;2023-11-19T07:21:04;6.03;;;4.55;;
3841;SDS011;1936;47.074;15.336;2023-11-19T07:23:06;6.78;;;4.85;;
3841;SDS011;1936;47.074;15.336;2023-11-19T07:25:10;4.95;;;4.55;;
3841;SDS011;1936;47.074;15.336;2023-11-19T07:27:15;4.97;;;4.57;;
3841;SDS011;1936;47.074;15.336;2023-11-19T07:29:18;5.07;;;3.92;;
3841;SDS011;1936;47.074;15.336;2023-11-19T07:31:26;4.18;;;3.78;;
3841;SDS011;1936;47.074;15.336;2023-11-19T07:33:29;5.82;;;4.78;;
3841;SDS011;1936;47.074;15.336;2023-11-19T07:35:32;6.18;;;4.45;;
3841;SDS011;1936;47.074;15.336;2023-11-19T07:37:36;4.72;;;4.20;;
3841;SDS011;1936;47.074;15.336;2023-11-19T07:39:40;5.57;;;4.97;;
3841;SDS011;1936;47.074;15.336;2023-11-19T07:41:43;4.85;;;4.45;;
3841;SDS011;1936;47.074;15.336;2023-11-19T07:43:48;5.25;;;4.30;;
3841;SDS011;1936;47.074;15.336;2023-11-19T07:45:53;4.85;;;4.43;;
3841;SDS011;1936;47.074;15.336;2023-11-19T07:47:56;4.07;;;3.67;;
3841;SDS011;1936;47.074;15.336;2023-11-19T07:49:59;7.20;;;4.43;;
3841;SDS011;1936;47.074;15.336;2023-11-19T07:52:03;4.68;;;4.00;;
3841;SDS011;1936;47.074;15.336;2023-11-19T07:54:22;4.93;;;4.43;;
3841;SDS011;1936;47.074;15.336;2023-11-19T07:56:25;4.57;;;4.18;;
3841;SDS011;1936;47.074;15.336;2023-11-19T07:58:29;5.25;;;3.45;;
3841;SDS011;1936;47.074;15.336;2023-11-19T08:00:34;4.18;;;3.42;;
3841;SDS011;1936;47.074;15.336;2023-11-19T08:02:37;3.83;;;3.53;;
3841;SDS011;1936;47.074;15.336;2023-11-19T08:04:41;5.80;;;3.90;;
3841;SDS011;1936;47.074;15.336;2023-11-19T08:06:47;5.40;;;3.92;;
3841;SDS011;1936;47.074;15.336;2023-11-19T08:08:50;4.32;;;3.92;;
3841;SDS011;1936;47.074;15.336;2023-11-19T08:10:53;4.13;;;3.78;;
3841;SDS011;1936;47.074;15.336;2023-11-19T08:12:57;4.28;;;3.70;;
3841;SDS011;1936;47.074;15.336;2023-11-19T08:15:01;6.35;;;4.20;;
3841;SDS011;1936;47.074;15.336;2023-11-19T08:17:07;5.60;;;5.15;;
3841;SDS011;1936;47.074;15.336;2023-11-19T08:19:11;5.57;;;4.43;;
3841;SDS011;1936;47.074;15.336;2023-11-19T08:21:15;8.00;;;5.00;;
3841;SDS011;1936;47.074;15.336;2023-11-19T08:23:18;9.15;;;4.95;;
3841;SDS011;1936;47.074;15.336;2023-11-19T08:25:22;5.28;;;4.60;;
3841;SDS011;1936;47.074;15.336;2023-11-19T08:27:25;7.10;;;5.00;;
3841;SDS011;1936;47.074;15.336;2023-11-19T08:29:29;5.80;;;4.77;;
3841;SDS011;1936;47.074;15.336;2023-11-19T08:31:32;4.43;;;4.03;;
3841;SDS011;1936;47.074;15.336;2023-11-19T08:33:37;5.57;;;4.10;;
3841;SDS011;1936;47.074;15.336;2023-11-19T08:35:40;6.20;;;4.03;;
3841;SDS011;1936;47.074;15.336;2023-11-19T08:37:43;4.50;;;3.63;;
3841;SDS011;1936;47.074;15.336;2023-11-19T08:39:47;4.57;;;3.13;;
3841;SDS011;1936;47.074;15.336;2023-11-19T08:41:51;3.73;;;3.43;;
3841;SDS011;1936;47.074;15.336;2023-11-19T08:43:54;5.57;;;3.50;;
3841;SDS011;1936;47.074;15.336;2023-11-19T08:45:58;3.60;;;3.30;;
3841;SDS011;1936;47.074;15.336;2023-11-19T08:48:00;3.30;;;2.73;;
3841;SDS011;1936;47.074;15.336;2023-11-19T08:50:05;4.13;;;2.83;;
3841;SDS011;1936;47.074;15.336;2023-11-19T08:52:10;3.10;;;2.80;;
3841;SDS011;1936;47.074;15.336;2023-11-19T08:54:13;3.10;;;2.80;;
3841;SDS011;1936;47.074;15.336;2023-11-19T08:56:17;3.63;;;2.80;;
3841;SDS011;1936;47.074;15.336;2023-11-19T08:58:20;2.97;;;2.30;;
3841;SDS011;1936;47.074;15.336;2023-11-19T09:00:24;2.77;;;1.97;;
3841;SDS011;1936;47.074;15.336;2023-11-19T09:02:27;2.07;;;1.97;;
3841;SDS011;1936;47.074;15.336;2023-11-19T09:04:31;2.80;;;2.60;;
3841;SDS011;1936;47.074;15.336;2023-11-19T09:06:36;3.60;;;2.90;;
3841;SDS011;1936;47.074;15.336;2023-11-19T09:08:41;5.60;;;4.00;;
3841;SDS011;1936;47.074;15.336;2023-11-19T09:10:45;4.13;;;3.17;;
3841;SDS011;1936;47.074;15.336;2023-11-19T09:12:49;2.90;;;2.10;;
3841;SDS011;1936;47.074;15.336;2023-11-19T09:14:52;2.50;;;2.30;;
3841;SDS011;1936;47.074;15.336;2023-11-19T09:16:55;4.93;;;3.00;;
3841;SDS011;1936;47.074;15.336;2023-11-19T09:18:59;1.67;;;1.40;;
3841;SDS011;1936;47.074;15.336;2023-11-19T09:21:07;1.77;;;1.33;;
3841;SDS011;1936;47.074;15.336;2023-11-19T09:23:12;2.53;;;1.47;;
3841;SDS011;1936;47.074;15.336;2023-11-19T09:25:15;1.97;;;1.50;;
3841;SDS011;1936;47.074;15.336;2023-11-19T09:27:18;3.80;;;2.40;;
3841;SDS011;1936;47.074;15.336;2023-11-19T09:29:22;3.67;;;2.30;;
3841;SDS011;1936;47.074;15.336;2023-11-19T09:31:26;2.13;;;1.93;;
3841;SDS011;1936;47.074;15.336;2023-11-19T09:33:30;3.20;;;2.33;;
3841;SDS011;1936;47.074;15.336;2023-11-19T09:35:33;2.83;;;1.90;;
3841;SDS011;1936;47.074;15.336;2023-11-19T09:37:37;2.20;;;2.00;;
3841;SDS011;1936;47.074;15.336;2023-11-19T09:39:41;2.17;;;1.97;;
3841;SDS011;1936;47.074;15.336;2023-11-19T09:41:45;2.30;;;1.83;;
3841;SDS011;1936;47.074;15.336;2023-11-19T09:43:47;3.23;;;2.70;;
3841;SDS011;1936;47.074;15.336;2023-11-19T09:45:51;4.07;;;3.50;;
3841;SDS011;1936;47.074;15.336;2023-11-19T09:47:55;3.90;;;3.13;;
3841;SDS011;1936;47.074;15.336;2023-11-19T09:50:00;3.00;;;2.73;;
3841;SDS011;1936;47.074;15.336;2023-11-19T09:52:04;3.17;;;2.87;;
3841;SDS011;1936;47.074;15.336;2023-11-19T09:54:08;2.50;;;2.30;;
3841;SDS011;1936;47.074;15.336;2023-11-19T09:56:12;2.70;;;2.50;;
3841;SDS011;1936;47.074;15.336;2023-11-19T09:58:18;2.30;;;2.10;;
3841;SDS011;1936;47.074;15.336;2023-11-19T10:00:22;2.43;;;2.23;;
3841;SDS011;1936;47.074;15.336;2023-11-19T10:02:25;3.40;;;3.10;;
3841;SDS011;1936;47.074;15.336;2023-11-19T10:04:31;3.13;;;2.83;;
3841;SDS011;1936;47.074;15.336;2023-11-19T10:06:38;4.40;;;3.80;;
3841;SDS011;1936;47.074;15.336;2023-11-19T10:08:42;3.60;;;3.30;;
3841;SDS011;1936;47.074;15.336;2023-11-19T10:10:45;4.50;;;3.50;;
3841;SDS011;1936;47.074;15.336;2023-11-19T10:12:52;3.47;;;3.17;;
3841;SDS011;1936;47.074;15.336;2023-11-19T10:14:59;3.60;;;2.97;;
3841;SDS011;1936;47.074;15.336;2023-11-19T10:17:03;3.60;;;3.10;;
3841;SDS011;1936;47.074;15.336;2023-11-19T10:19:06;3.40;;;2.80;;
3841;SDS011;1936;47.074;15.336;2023-11-19T10:21:10;4.70;;;3.50;;
3841;SDS011;1936;47.074;15.336;2023-11-19T10:23:18;3.33;;;3.03;;
3841;SDS011;1936;47.074;15.336;2023-11-19T10:25:22;4.10;;;3.60;;
3841;SDS011;1936;47.074;15.336;2023-11-19T10:27:26;3.53;;;3.20;;
3841;SDS011;1936;47.074;15.336;2023-11-19T10:29:31;2.80;;;2.60;;
3841;SDS011;1936;47.074;15.336;2023-11-19T10:31:34;3.33;;;3.03;;
3841;SDS011;1936;47.074;15.336;2023-11-19T10:33:37;3.77;;;2.70;;
3841;SDS011;1936;47.074;15.336;2023-11-19T10:35:50;3.03;;;2.73;;
3841;SDS011;1936;47.074;15.336;2023-11-19T10:37:58;3.43;;;2.80;;
3841;SDS011;1936;47.074;15.336;2023-11-19T10:40:03;2.87;;;2.57;;
3841;SDS011;1936;47.074;15.336;2023-11-19T10:42:15;3.43;;;2.90;;
3841;SDS011;1936;47.074;15.336;2023-11-19T10:44:33;4.10;;;3.47;;
3841;SDS011;1936;47.074;15.336;2023-11-19T10:46:38;2.97;;;2.67;;
3841;SDS011;1936;47.074;15.336;2023-11-19T10:48:42;2.33;;;2.10;;
3841;SDS011;1936;47.074;15.336;2023-11-19T10:50:53;3.97;;;3.50;;
3841;SDS011;1936;47.074;15.336;2023-11-19T10:52:57;3.17;;;2.77;;
3841;SDS011;1936;47.074;15.336;2023-11-19T10:55:00;4.70;;;3.43;;
3841;SDS011;1936;47.074;15.336;2023-11-19T10:57:07;3.17;;;2.97;;
3841;SDS011;1936;47.074;15.336;2023-11-19T10:59:15;4.10;;;3.70;;
3841;SDS011;1936;47.074;15.336;2023-11-19T11:01:26;5.87;;;4.00;;
3841;SDS011;1936;47.074;15.336;2023-11-19T11:03:38;4.80;;;4.30;;
3841;SDS011;1936;47.074;15.336;2023-11-19T11:05:42;3.93;;;3.53;;
3841;SDS011;1936;47.074;15.336;2023-11-19T11:07:48;4.50;;;3.80;;
3841;SDS011;1936;47.074;15.336;2023-11-19T11:09:53;5.37;;;3.87;;
3841;SDS011;1936;47.074;15.336;2023-11-19T11:11:57;5.50;;;4.33;;
3841;SDS011;1936;47.074;15.336;2023-11-19T11:14:02;4.17;;;3.70;;
3841;SDS011;1936;47.074;15.336;2023-11-19T11:16:07;4.90;;;4.40;;
3841;SDS011;1936;47.074;15.336;2023-11-19T11:18:14;5.30;;;4.00;;
3841;SDS011;1936;47.074;15.336;2023-11-19T11:20:18;4.07;;;3.73;;
3841;SDS011;1936;47.074;15.336;2023-11-19T11:22:22;3.97;;;3.57;;
3841;SDS011;1936;47.074;15.336;2023-11-19T11:24:32;4.07;;;3.53;;
3841;SDS011;1936;47.074;15.336;2023-11-19T11:27:05;4.80;;;2.60;;
3841;SDS011;1936;47.074;15.336;2023-11-19T11:29:24;4.00;;;3.60;;
3841;SDS011;1936;47.074;15.336;2023-11-19T11:31:35;3.83;;;3.50;;
3841;SDS011;1936;47.074;15.336;2023-11-19T11:33:56;4.10;;;3.80;;
3841;SDS011;1936;47.074;15.336;2023-11-19T11:36:17;3.70;;;3.30;;
3841;SDS011;1936;47.074;15.336;2023-11-19T11:38:24;7.20;;;3.70;;
3841;SDS011;1936;47.074;15.336;2023-11-19T11:40:28;4.07;;;3.33;;
3841;SDS011;1936;47.074;15.336;2023-11-19T11:42:33;3.50;;;3.03;;
3841;SDS011;1936;47.074;15.336;2023-11-19T11:47:06;3.07;;;2.77;;
3841;SDS011;1936;47.074;15.336;2023-11-19T11:49:10;4.13;;;3.00;;
3841;SDS011;1936;47.074;15.336;2023-11-19T11:51:14;9.97;;;3.47;;
3841;SDS011;1936;47.074;15.336;2023-11-19T11:53:17;3.83;;;3.20;;
3841;SDS011;1936;47.074;15.336;2023-11-19T11:55:23;4.23;;;2.93;;
3841;SDS011;1936;47.074;15.336;2023-11-19T11:57:26;3.00;;;2.67;;
3841;SDS011;1936;47.074;15.336;2023-11-19T11:59:45;4.90;;;3.30;;
3841;SDS011;1936;47.074;15.336;2023-11-19T12:01:57;3.57;;;2.67;;
3841;SDS011;1936;47.074;15.336;2023-11-19T12:04:01;3.33;;;2.83;;
3841;SDS011;1936;47.074;15.336;2023-11-19T12:06:06;7.47;;;3.03;;
3841;SDS011;1936;47.074;15.336;2023-11-19T12:08:10;2.90;;;2.60;;
3841;SDS011;1936;47.074;15.336;2023-11-19T12:10:16;3.53;;;2.70;;
3841;SDS011;1936;47.074;15.336;2023-11-19T12:12:26;3.07;;;2.77;;
3841;SDS011;1936;47.074;15.336;2023-11-19T12:19:47;4.23;;;3.30;;
3841;SDS011;1936;47.074;15.336;2023-11-19T12:21:52;3.43;;;3.13;;
3841;SDS011;1936;47.074;15.336;2023-11-19T12:23:55;4.00;;;3.67;;
3841;SDS011;1936;47.074;15.336;2023-11-19T12:26:05;5.00;;;3.70;;
3841;SDS011;1936;47.074;15.336;2023-11-19T12:28:11;4.63;;;3.10;;
3841;SDS011;1936;47.074;15.336;2023-11-19T12:30:16;3.87;;;3.00;;
3841;SDS011;1936;47.074;15.336;2023-11-19T12:32:20;3.40;;;3.10;;
3841;SDS011;1936;47.074;15.336;2023-11-19T12:34:23;3.70;;;3.37;;
3841;SDS011;1936;47.074;15.336;2023-11-19T12:36:29;3.93;;;3.30;;
3841;SDS011;1936;47.074;15.336;2023-11-19T12:38:33;3.97;;;3.50;;
3841;SDS011;1936;47.074;15.336;2023-11-19T12:40:38;4.33;;;3.23;;
3841;SDS011;1936;47.074;15.336;2023-11-19T12:42:42;5.10;;;3.80;;
3841;SDS011;1936;47.074;15.336;2023-11-19T12:44:54;4.87;;;3.93;;
3841;SDS011;1936;47.074;15.336;2023-11-19T12:47:01;4.77;;;4.30;;
3841;SDS011;1936;47.074;15.336;2023-11-19T12:49:05;3.80;;;3.40;;
3841;SDS011;1936;47.074;15.336;2023-11-19T12:51:08;3.73;;;3.40;;